createdAt,value
2023-05-19T00:00:58.044Z,1.00
2023-05-19T00:02:10.176Z,1.15
2023-05-19T00:03:17.937Z,1.40
2023-05-19T00:04:21.344Z,1.05
2023-05-19T00:05:29.174Z,1.35
2023-05-19T00:06:34.473Z,1.08
2023-05-19T00:07:41.601Z,1.13
2023-05-19T00:08:44.629Z,1.02
2023-05-19T00:09:55.588Z,0.90
2023-05-19T00:10:58.692Z,1.17
2023-05-19T00:12:02.930Z,1.13
2023-05-19T00:13:08.827Z,1.00
2023-05-19T00:14:11.672Z,0.80
2023-05-19T00:15:14.740Z,1.30
2023-05-19T00:16:21.029Z,1.00
2023-05-19T00:17:27.703Z,8.73
2023-05-19T00:18:30.968Z,9.90
2023-05-19T00:19:33.474Z,10.05
2023-05-19T00:20:38.079Z,8.57
2023-05-19T00:21:40.658Z,6.28
2023-05-19T00:22:45.579Z,5.85
2023-05-19T00:23:55.079Z,4.70
2023-05-19T00:24:58.644Z,3.40
2023-05-19T00:26:02.050Z,2.80
2023-05-19T00:27:07.048Z,2.80
2023-05-19T00:28:10.838Z,1.98
2023-05-19T00:29:20.922Z,2.17
2023-05-19T00:30:26.932Z,1.85
2023-05-19T00:31:29.943Z,2.20
2023-05-19T00:32:34.861Z,1.95
2023-05-19T00:33:41.481Z,1.90
2023-05-19T00:34:47.973Z,1.80
2023-05-19T00:35:51.202Z,2.00
2023-05-19T00:36:53.777Z,1.42
2023-05-19T00:38:02.363Z,1.67
2023-05-19T00:39:06.726Z,1.40
2023-05-19T00:40:13.793Z,1.30
2023-05-19T00:41:16.208Z,1.40
2023-05-19T00:42:18.604Z,1.25
2023-05-19T00:43:22.077Z,1.95
2023-05-19T00:44:26.469Z,42.28
2023-05-19T00:45:30.135Z,52.03
2023-05-19T00:46:41.832Z,37.70
2023-05-19T00:47:44.962Z,25.20
2023-05-19T00:48:47.495Z,18.25
2023-05-19T00:49:52.144Z,14.60
2023-05-19T00:51:04.693Z,11.85
2023-05-19T00:52:07.452Z,9.43
2023-05-19T00:53:10.300Z,6.53
2023-05-19T00:54:12.974Z,5.78
2023-05-19T00:55:15.851Z,6.28
2023-05-19T00:56:21.124Z,4.88
2023-05-19T00:57:24.479Z,4.88
2023-05-19T00:58:30.804Z,4.05
2023-05-19T00:59:34.103Z,4.05
2023-05-19T01:00:37.162Z,3.63
2023-05-19T01:01:42.661Z,3.75
2023-05-19T01:02:47.662Z,3.10
2023-05-19T01:03:53.787Z,3.38
2023-05-19T01:04:58.293Z,3.17
2023-05-19T01:06:08.712Z,2.85
2023-05-19T01:07:12.753Z,3.38
2023-05-19T01:08:16.435Z,3.28
2023-05-19T01:09:25.534Z,3.05
2023-05-19T01:10:28.223Z,2.83
2023-05-19T01:11:30.697Z,2.60
2023-05-19T01:12:34.480Z,2.28
2023-05-19T01:13:40.338Z,3.13
2023-05-19T01:14:44.733Z,3.05
2023-05-19T01:16:13.081Z,2.83
2023-05-19T01:17:34.434Z,2.92
2023-05-19T01:19:03.025Z,51.03
2023-05-19T01:20:31.242Z,46.70
2023-05-19T01:21:51.406Z,40.67
2023-05-19T01:23:05.843Z,37.95
2023-05-19T01:24:29.979Z,30.95
2023-05-19T01:26:00.831Z,20.70
2023-05-19T01:27:18.142Z,17.00
2023-05-19T01:28:45.251Z,12.63
2023-05-19T01:30:01.139Z,9.95
2023-05-19T01:31:06.482Z,8.95
2023-05-19T01:32:10.927Z,6.88
2023-05-19T01:33:21.176Z,6.65
2023-05-19T01:34:26.599Z,6.47
2023-05-19T01:35:30.771Z,6.18
2023-05-19T01:36:35.061Z,5.90
2023-05-19T01:37:39.419Z,5.13
2023-05-19T01:38:50.351Z,5.22
2023-05-19T01:39:53.339Z,4.82
2023-05-19T01:40:57.491Z,5.63
2023-05-19T01:42:02.326Z,4.60
2023-05-19T01:43:06.532Z,4.80
2023-05-19T01:44:10.120Z,5.18
2023-05-19T01:45:14.423Z,5.47
2023-05-19T01:46:18.995Z,5.20
2023-05-19T01:47:21.991Z,4.22
2023-05-19T01:48:25.108Z,3.33
2023-05-19T01:49:27.640Z,2.63
2023-05-19T01:50:31.258Z,2.83
2023-05-19T01:51:36.408Z,2.95
2023-05-19T01:52:39.220Z,2.60
2023-05-19T01:53:43.918Z,3.20
2023-05-19T01:54:46.511Z,17.85
2023-05-19T01:55:52.507Z,25.30
2023-05-19T01:57:37.818Z,22.20
2023-05-19T01:58:46.945Z,50.30
2023-05-19T02:00:11.689Z,35.85
2023-05-19T02:01:29.985Z,27.75
2023-05-19T02:03:16.911Z,21.90
2023-05-19T02:04:39.926Z,14.70
2023-05-19T02:06:03.950Z,11.88
2023-05-19T02:07:30.840Z,10.48
2023-05-19T02:08:44.366Z,7.97
2023-05-19T02:10:03.931Z,7.07
2023-05-19T02:11:30.137Z,6.45
2023-05-19T02:12:38.145Z,5.85
2023-05-19T02:13:44.953Z,5.78
2023-05-19T02:14:59.907Z,6.00
2023-05-19T02:16:05.689Z,5.90
2023-05-19T02:17:10.444Z,4.75
2023-05-19T02:18:17.957Z,4.45
2023-05-19T02:19:29.488Z,4.20
2023-05-19T02:20:33.645Z,4.53
2023-05-19T02:21:36.241Z,4.55
2023-05-19T02:22:38.927Z,4.57
2023-05-19T02:23:42.640Z,4.25
2023-05-19T02:24:46.667Z,4.00
2023-05-19T02:25:49.645Z,4.80
2023-05-19T02:26:53.750Z,34.03
2023-05-19T02:27:57.533Z,30.45
2023-05-19T02:29:00.897Z,26.90
2023-05-19T02:30:04.903Z,40.95
2023-05-19T02:31:08.985Z,46.67
2023-05-19T02:32:12.055Z,47.00
2023-05-19T02:33:15.818Z,38.92
2023-05-19T02:34:20.815Z,32.28
2023-05-19T02:35:23.385Z,24.73
2023-05-19T02:36:26.567Z,19.25
2023-05-19T02:37:31.273Z,15.05
2023-05-19T02:38:33.843Z,13.07
2023-05-19T02:39:36.431Z,12.20
2023-05-19T02:40:38.983Z,10.43
2023-05-19T02:41:42.387Z,9.90
2023-05-19T02:42:45.440Z,9.93
2023-05-19T02:43:51.334Z,10.07
2023-05-19T02:44:55.633Z,9.15
2023-05-19T02:45:58.181Z,9.15
2023-05-19T02:47:03.331Z,9.05
2023-05-19T02:48:05.938Z,8.80
2023-05-19T02:49:08.495Z,9.00
2023-05-19T02:50:14.209Z,8.32
2023-05-19T02:51:16.742Z,8.73
2023-05-19T02:52:19.449Z,8.75
2023-05-19T02:53:24.250Z,8.35
2023-05-19T02:54:26.718Z,7.80
2023-05-19T02:55:29.790Z,7.20
2023-05-19T02:56:36.081Z,8.18
2023-05-19T02:57:38.839Z,7.70
2023-05-19T02:58:43.092Z,7.55
2023-05-19T02:59:45.685Z,8.43
2023-05-19T03:00:48.666Z,7.30
2023-05-19T03:02:01.323Z,7.72
2023-05-19T03:03:04.657Z,7.10
2023-05-19T03:04:07.486Z,6.50
2023-05-19T03:05:10.683Z,6.50
2023-05-19T03:06:14.407Z,6.88
2023-05-19T03:07:17.012Z,14.93
2023-05-19T03:08:20.241Z,26.40
2023-05-19T03:09:23.616Z,77.45
2023-05-19T03:10:26.519Z,94.78
2023-05-19T03:11:30.831Z,61.25
2023-05-19T03:12:35.992Z,46.63
2023-05-19T03:13:38.457Z,32.80
2023-05-19T03:14:43.915Z,25.23
2023-05-19T03:15:47.350Z,22.35
2023-05-19T03:16:50.050Z,18.40
2023-05-19T03:17:52.692Z,16.25
2023-05-19T03:18:55.767Z,14.45
2023-05-19T03:19:58.515Z,12.75
2023-05-19T03:21:01.173Z,11.98
2023-05-19T03:22:05.101Z,11.15
2023-05-19T03:23:09.159Z,9.50
2023-05-19T03:24:11.864Z,9.98
2023-05-19T03:25:14.520Z,7.90
2023-05-19T03:26:20.038Z,7.88
2023-05-19T03:27:22.769Z,8.27
2023-05-19T03:28:27.265Z,7.40
2023-05-19T03:29:29.706Z,7.63
2023-05-19T03:30:33.251Z,7.47
2023-05-19T03:31:46.777Z,7.35
2023-05-19T03:32:52.185Z,7.10
2023-05-19T03:33:54.838Z,7.10
2023-05-19T03:34:59.136Z,6.95
2023-05-19T03:36:02.147Z,5.88
2023-05-19T03:37:10.645Z,5.60
2023-05-19T03:38:14.061Z,6.30
2023-05-19T03:39:23.600Z,6.13
2023-05-19T03:40:26.851Z,6.00
2023-05-19T03:41:35.973Z,6.97
2023-05-19T03:42:41.162Z,8.68
2023-05-19T03:43:43.613Z,8.05
2023-05-19T03:44:47.020Z,8.25
2023-05-19T03:45:50.651Z,8.82
2023-05-19T03:47:22.273Z,10.18
2023-05-19T03:48:36.010Z,9.95
2023-05-19T03:50:19.045Z,10.60
2023-05-19T03:51:31.004Z,9.52
2023-05-19T03:52:45.347Z,10.40
2023-05-19T03:54:04.553Z,9.68
2023-05-19T03:55:08.199Z,10.38
2023-05-19T03:56:13.622Z,10.15
2023-05-19T03:57:16.589Z,10.80
2023-05-19T03:58:21.425Z,10.77
2023-05-19T03:59:24.444Z,11.10
2023-05-19T04:00:27.169Z,9.18
2023-05-19T04:01:30.309Z,10.50
2023-05-19T04:02:33.971Z,10.20
2023-05-19T04:03:36.648Z,10.25
2023-05-19T04:04:39.569Z,10.00
2023-05-19T04:05:42.653Z,10.05
2023-05-19T04:06:45.611Z,10.07
2023-05-19T04:07:48.467Z,10.10
2023-05-19T04:08:51.019Z,10.55
2023-05-19T04:09:53.669Z,9.90
2023-05-19T04:10:56.617Z,10.10
2023-05-19T04:11:59.173Z,9.63
2023-05-19T04:13:01.848Z,9.75
2023-05-19T04:14:04.396Z,9.95
2023-05-19T04:15:08.101Z,9.57
2023-05-19T04:16:11.631Z,9.85
2023-05-19T04:17:14.347Z,9.85
2023-05-19T04:18:16.847Z,9.88
2023-05-19T04:19:19.662Z,10.02
2023-05-19T04:20:22.917Z,9.57
2023-05-19T04:21:26.473Z,9.85
2023-05-19T04:22:30.798Z,8.75
2023-05-19T04:23:33.201Z,8.68
2023-05-19T04:24:36.119Z,8.30
2023-05-19T04:25:40.775Z,9.30
2023-05-19T04:26:46.137Z,10.80
2023-05-19T04:27:49.767Z,17.55
2023-05-19T04:28:53.849Z,19.00
2023-05-19T04:29:56.317Z,21.80
2023-05-19T04:31:01.404Z,17.40
2023-05-19T04:32:07.898Z,15.10
2023-05-19T04:33:11.604Z,14.77
2023-05-19T04:34:14.082Z,13.82
2023-05-19T04:35:17.756Z,16.02
2023-05-19T04:36:21.841Z,14.57
2023-05-19T04:37:27.130Z,15.38
2023-05-19T04:38:30.060Z,15.73
2023-05-19T04:39:33.127Z,14.60
2023-05-19T04:40:36.138Z,14.63
2023-05-19T04:41:44.356Z,15.60
2023-05-19T04:42:49.717Z,14.57
2023-05-19T04:43:52.273Z,14.82
2023-05-19T04:44:55.442Z,15.73
2023-05-19T04:46:02.469Z,16.60
2023-05-19T04:47:06.504Z,16.48
2023-05-19T04:48:10.141Z,14.98
2023-05-19T04:49:15.406Z,14.77
2023-05-19T04:50:18.569Z,15.02
2023-05-19T04:51:29.216Z,15.02
2023-05-19T04:52:36.444Z,13.98
2023-05-19T04:53:54.676Z,14.38
2023-05-19T04:55:00.609Z,15.05
2023-05-19T04:56:05.344Z,13.82
2023-05-19T04:57:11.196Z,13.90
2023-05-19T04:58:19.679Z,13.88
2023-05-19T04:59:24.002Z,13.65
2023-05-19T05:00:27.372Z,14.20
2023-05-19T05:01:34.974Z,14.68
2023-05-19T05:02:38.508Z,14.18
2023-05-19T05:03:44.567Z,13.52
2023-05-19T05:04:47.234Z,14.00
2023-05-19T05:05:50.313Z,13.60
2023-05-19T05:06:52.712Z,13.25
2023-05-19T05:07:59.828Z,13.10
2023-05-19T05:09:05.293Z,13.40
2023-05-19T05:10:11.090Z,10.38
2023-05-19T05:11:13.986Z,10.32
2023-05-19T05:12:18.679Z,18.63
2023-05-19T05:13:24.094Z,18.17
2023-05-19T05:14:27.190Z,18.85
2023-05-19T05:15:29.940Z,14.10
2023-05-19T05:16:35.579Z,11.73
2023-05-19T05:17:38.454Z,13.35
2023-05-19T05:18:44.993Z,15.43
2023-05-19T05:19:48.504Z,11.40
2023-05-19T05:20:51.487Z,9.57
2023-05-19T05:21:54.987Z,10.07
2023-05-19T05:22:57.928Z,8.23
2023-05-19T05:24:01.811Z,8.20
2023-05-19T05:25:08.660Z,8.00
2023-05-19T05:26:18.746Z,9.18
2023-05-19T05:27:23.518Z,8.98
2023-05-19T05:28:26.329Z,9.45
2023-05-19T05:29:29.623Z,10.30
2023-05-19T05:30:33.627Z,9.05
2023-05-19T05:31:37.031Z,9.80
2023-05-19T05:32:40.258Z,10.15
2023-05-19T05:33:48.849Z,8.77
2023-05-19T05:34:54.549Z,9.63
2023-05-19T05:35:57.748Z,8.90
2023-05-19T05:37:01.180Z,8.63
2023-05-19T05:38:04.040Z,9.48
2023-05-19T05:39:07.093Z,9.35
2023-05-19T05:40:11.164Z,8.77
2023-05-19T05:41:13.672Z,8.80
2023-05-19T05:42:16.366Z,9.48
2023-05-19T05:43:19.387Z,8.90
2023-05-19T05:44:29.103Z,9.20
2023-05-19T05:45:32.123Z,9.30
2023-05-19T05:46:36.799Z,9.20
2023-05-19T05:47:41.469Z,8.18
2023-05-19T05:48:44.672Z,21.45
2023-05-19T05:49:48.721Z,32.92
2023-05-19T05:50:55.057Z,33.15
2023-05-19T05:52:06.317Z,32.33
2023-05-19T05:53:19.953Z,30.27
2023-05-19T05:54:26.514Z,25.58
2023-05-19T05:55:31.450Z,17.77
2023-05-19T05:56:37.054Z,18.60
2023-05-19T05:57:43.356Z,17.27
2023-05-19T05:58:45.922Z,14.30
2023-05-19T05:59:48.664Z,16.95
2023-05-19T06:00:53.463Z,15.00
2023-05-19T06:01:56.334Z,14.77
2023-05-19T06:02:59.995Z,13.23
2023-05-19T06:04:02.955Z,12.27
2023-05-19T06:05:07.030Z,13.55
2023-05-19T06:06:10.913Z,12.32
2023-05-19T06:07:13.616Z,12.50
2023-05-19T06:08:17.658Z,11.07
2023-05-19T06:09:20.333Z,8.60
2023-05-19T06:10:23.594Z,7.47
2023-05-19T06:11:26.596Z,5.47
2023-05-19T06:12:30.233Z,4.60
2023-05-19T06:13:32.837Z,4.53
2023-05-19T06:14:35.429Z,5.28
2023-05-19T06:16:02.344Z,5.95
2023-05-19T06:17:08.683Z,5.05
2023-05-19T06:18:11.193Z,4.63
2023-05-19T06:19:15.430Z,8.50
2023-05-19T06:20:19.981Z,8.48
2023-05-19T06:21:22.804Z,7.50
2023-05-19T06:22:27.404Z,6.30
2023-05-19T06:23:33.177Z,7.15
2023-05-19T06:24:37.853Z,6.30
2023-05-19T06:25:42.145Z,6.78
2023-05-19T06:26:45.425Z,6.82
2023-05-19T06:27:48.228Z,6.68
2023-05-19T06:28:52.240Z,6.93
2023-05-19T06:29:54.978Z,6.72
2023-05-19T06:30:57.739Z,6.90
2023-05-19T06:32:35.930Z,7.22
2023-05-19T06:33:39.472Z,6.70
2023-05-19T06:34:42.023Z,5.90
2023-05-19T06:35:45.344Z,6.97
2023-05-19T06:36:47.873Z,6.40
2023-05-19T06:37:51.334Z,6.85
2023-05-19T06:38:53.860Z,7.40
2023-05-19T06:39:56.521Z,6.70
2023-05-19T06:40:59.722Z,6.53
2023-05-19T06:42:02.898Z,6.93
2023-05-19T06:43:42.387Z,5.57
2023-05-19T06:44:51.512Z,4.60
2023-05-19T06:45:54.260Z,4.18
2023-05-19T06:46:57.806Z,3.92
2023-05-19T06:48:00.670Z,3.83
2023-05-19T06:49:03.530Z,3.70
2023-05-19T06:50:11.076Z,3.88
2023-05-19T06:51:21.612Z,3.63
2023-05-19T06:52:27.761Z,2.83
2023-05-19T06:53:31.791Z,3.60
2023-05-19T06:54:36.006Z,3.25
2023-05-19T06:55:50.804Z,3.55
2023-05-19T06:57:02.755Z,2.60
2023-05-19T06:58:05.387Z,3.00
2023-05-19T06:59:07.860Z,3.30
2023-05-19T07:00:16.103Z,3.90
2023-05-19T07:01:23.490Z,3.55
2023-05-19T07:02:30.246Z,3.10
2023-05-19T07:03:33.654Z,4.47
2023-05-19T07:04:36.742Z,3.85
2023-05-19T07:05:39.537Z,4.18
2023-05-19T07:06:42.300Z,3.72
2023-05-19T07:07:46.871Z,3.35
2023-05-19T07:08:54.280Z,3.33
2023-05-19T07:09:57.354Z,3.22
2023-05-19T07:11:00.069Z,3.55
2023-05-19T07:12:02.549Z,3.58
2023-05-19T07:13:05.610Z,3.40
2023-05-19T07:14:09.333Z,2.67
2023-05-19T07:15:11.994Z,3.40
2023-05-19T07:16:14.477Z,2.95
2023-05-19T07:17:16.943Z,3.30
2023-05-19T07:18:21.555Z,2.65
2023-05-19T07:19:24.179Z,2.90
2023-05-19T07:20:28.106Z,2.78
2023-05-19T07:21:30.774Z,2.97
2023-05-19T07:22:36.398Z,2.40
2023-05-19T07:23:38.745Z,2.30
2023-05-19T07:24:41.082Z,2.40
2023-05-19T07:25:43.441Z,2.70
2023-05-19T07:26:45.823Z,2.22
2023-05-19T07:27:48.212Z,2.35
2023-05-19T07:28:51.877Z,2.63
2023-05-19T07:29:54.708Z,2.30
2023-05-19T07:30:57.217Z,2.33
2023-05-19T07:31:59.684Z,2.40
2023-05-19T07:33:02.527Z,2.38
2023-05-19T07:34:06.300Z,2.15
2023-05-19T07:35:08.924Z,2.10
2023-05-19T07:36:11.406Z,1.80
2023-05-19T07:37:13.932Z,2.25
2023-05-19T07:38:16.526Z,2.20
2023-05-19T07:39:20.234Z,1.85
2023-05-19T07:40:23.871Z,2.33
2023-05-19T07:41:27.434Z,1.83
2023-05-19T07:42:30.276Z,1.85
2023-05-19T07:43:33.118Z,2.22
2023-05-19T07:44:35.508Z,2.00
2023-05-19T07:45:38.757Z,1.70
2023-05-19T07:46:42.134Z,1.88
2023-05-19T07:47:45.258Z,1.88
2023-05-19T07:48:47.886Z,1.60
2023-05-19T07:49:52.003Z,1.73
2023-05-19T07:50:55.197Z,1.50
2023-05-19T07:51:57.902Z,1.17
2023-05-19T07:53:01.454Z,1.30
2023-05-19T07:54:04.408Z,1.65
2023-05-19T07:55:07.034Z,1.50
2023-05-19T07:56:09.428Z,1.60
2023-05-19T07:57:12.032Z,1.73
2023-05-19T07:58:14.818Z,1.90
2023-05-19T07:59:17.209Z,1.42
2023-05-19T08:00:19.932Z,1.70
2023-05-19T08:01:22.316Z,1.52
2023-05-19T08:02:24.942Z,1.45
2023-05-19T08:03:27.928Z,1.58
2023-05-19T08:04:30.637Z,1.45
2023-05-19T08:05:34.407Z,1.60
2023-05-19T08:06:36.900Z,1.52
2023-05-19T08:07:39.487Z,1.70
2023-05-19T08:08:42.247Z,1.52
2023-05-19T08:09:45.882Z,1.30
2023-05-19T08:10:48.376Z,1.75
2023-05-19T08:11:51.176Z,1.50
2023-05-19T08:12:53.823Z,1.40
2023-05-19T08:13:57.410Z,1.50
2023-05-19T08:15:01.415Z,1.77
2023-05-19T08:16:06.210Z,1.58
2023-05-19T08:17:09.337Z,1.70
2023-05-19T08:18:14.325Z,1.88
2023-05-19T08:19:21.909Z,2.60
2023-05-19T08:20:28.830Z,3.07
2023-05-19T08:21:34.657Z,12.48
2023-05-19T08:22:37.960Z,13.43
2023-05-19T08:23:46.450Z,23.27
2023-05-19T08:24:52.213Z,18.52
2023-05-19T08:25:54.953Z,16.20
2023-05-19T08:26:58.443Z,12.90
2023-05-19T08:28:01.107Z,15.10
2023-05-19T08:29:03.705Z,17.02
2023-05-19T08:30:09.954Z,19.15
2023-05-19T08:31:18.334Z,22.02
2023-05-19T08:32:24.266Z,21.08
2023-05-19T08:33:27.683Z,19.90
2023-05-19T08:34:31.147Z,27.50
2023-05-19T08:35:33.791Z,26.92
2023-05-19T08:36:36.450Z,22.70
2023-05-19T08:37:39.162Z,23.20
2023-05-19T08:38:42.601Z,24.00
2023-05-19T08:39:45.375Z,28.63
2023-05-19T08:40:48.776Z,26.63
2023-05-19T08:41:51.516Z,23.92
2023-05-19T08:42:55.047Z,22.80
2023-05-19T08:43:58.473Z,23.63
2023-05-19T08:45:02.284Z,20.65
2023-05-19T08:46:10.342Z,19.15
2023-05-19T08:47:15.792Z,17.92
2023-05-19T08:48:20.672Z,18.98
2023-05-19T08:49:32.881Z,22.15
2023-05-19T08:50:41.315Z,22.95
2023-05-19T08:51:56.154Z,21.67
2023-05-19T08:53:04.798Z,18.58
2023-05-19T08:54:14.762Z,18.85
2023-05-19T08:55:33.851Z,16.45
2023-05-19T08:56:37.771Z,17.42
2023-05-19T08:57:40.874Z,15.40
2023-05-19T08:58:46.795Z,14.02
2023-05-19T08:59:52.161Z,13.45
2023-05-19T09:00:56.670Z,13.40
2023-05-19T09:02:00.050Z,10.02
2023-05-19T09:03:17.369Z,8.82
2023-05-19T09:04:21.246Z,10.60
2023-05-19T09:05:24.419Z,10.30
2023-05-19T09:06:27.767Z,8.63
2023-05-19T09:07:34.899Z,8.65
2023-05-19T09:08:37.446Z,8.82
2023-05-19T09:09:43.939Z,8.65
2023-05-19T09:10:47.021Z,8.30
2023-05-19T09:11:49.660Z,9.20
2023-05-19T09:12:53.713Z,10.90
2023-05-19T09:13:56.235Z,12.45
2023-05-19T09:14:59.147Z,11.82
2023-05-19T09:16:03.297Z,12.43
2023-05-19T09:17:06.658Z,12.70
2023-05-19T09:18:12.324Z,11.27
2023-05-19T09:19:16.327Z,11.85
2023-05-19T09:20:19.369Z,13.00
2023-05-19T09:21:32.527Z,11.77
2023-05-19T09:22:41.534Z,11.10
2023-05-19T09:23:47.530Z,10.40
2023-05-19T09:24:50.065Z,10.35
2023-05-19T09:25:54.297Z,9.52
2023-05-19T09:26:58.488Z,10.50
2023-05-19T09:28:03.576Z,9.93
2023-05-19T09:29:15.683Z,10.05
2023-05-19T09:30:19.637Z,9.15
2023-05-19T09:31:22.674Z,9.00
2023-05-19T09:32:26.879Z,8.02
2023-05-19T09:33:31.280Z,8.05
2023-05-19T09:34:34.378Z,9.13
2023-05-19T09:35:37.286Z,8.90
2023-05-19T09:36:41.590Z,9.50
2023-05-19T09:37:46.657Z,8.40
2023-05-19T09:38:50.206Z,7.53
2023-05-19T09:39:53.583Z,8.57
2023-05-19T09:40:58.309Z,8.23
2023-05-19T09:42:06.125Z,7.55
2023-05-19T09:43:09.905Z,8.18
2023-05-19T09:44:23.487Z,9.68
2023-05-19T09:45:28.488Z,12.52
2023-05-19T09:46:31.053Z,18.90
2023-05-19T09:47:36.993Z,22.80
2023-05-19T09:48:39.524Z,24.17
2023-05-19T09:49:47.649Z,17.77
2023-05-19T09:50:53.067Z,11.93
2023-05-19T09:51:57.341Z,12.43
2023-05-19T09:53:00.190Z,12.02
2023-05-19T09:54:04.646Z,11.02
2023-05-19T09:55:10.992Z,11.10
2023-05-19T09:56:18.267Z,10.80
2023-05-19T09:57:29.696Z,9.95
2023-05-19T09:58:36.953Z,10.48
2023-05-19T09:59:40.862Z,9.13
2023-05-19T10:00:45.383Z,8.35
2023-05-19T10:01:48.971Z,8.77
2023-05-19T10:02:52.819Z,8.40
2023-05-19T10:03:56.537Z,8.45
2023-05-19T10:04:59.133Z,9.65
2023-05-19T10:06:03.851Z,10.15
2023-05-19T10:07:07.043Z,11.57
2023-05-19T10:08:12.825Z,10.13
2023-05-19T10:09:16.889Z,9.93
2023-05-19T10:10:23.082Z,8.68
2023-05-19T10:11:27.277Z,9.38
2023-05-19T10:12:31.882Z,9.95
2023-05-19T10:13:38.511Z,9.40
2023-05-19T10:14:42.505Z,10.57
2023-05-19T10:15:58.108Z,10.82
2023-05-19T10:17:02.501Z,10.20
2023-05-19T10:18:07.186Z,9.73
2023-05-19T10:19:11.479Z,10.88
2023-05-19T10:20:16.265Z,10.93
2023-05-19T10:21:19.249Z,10.73
2023-05-19T10:22:22.522Z,9.30
2023-05-19T10:23:25.734Z,9.80
2023-05-19T10:24:35.588Z,9.38
2023-05-19T10:25:38.683Z,8.88
2023-05-19T10:26:48.186Z,9.82
2023-05-19T10:28:14.186Z,10.52
2023-05-19T10:29:25.218Z,8.75
2023-05-19T10:30:41.147Z,7.95
2023-05-19T10:31:46.361Z,7.93
2023-05-19T10:32:49.472Z,7.88
2023-05-19T10:34:06.759Z,8.93
2023-05-19T10:35:19.205Z,8.25
2023-05-19T10:36:54.449Z,8.02
2023-05-19T10:38:07.597Z,8.77
2023-05-19T10:39:19.652Z,9.38
2023-05-19T10:40:31.023Z,7.93
2023-05-19T10:41:39.082Z,8.65
2023-05-19T10:43:00.855Z,7.85
2023-05-19T10:44:34.844Z,8.30
2023-05-19T10:45:47.605Z,8.80
2023-05-19T10:46:50.713Z,8.45
2023-05-19T10:47:54.876Z,8.43
2023-05-19T10:48:58.143Z,9.27
2023-05-19T10:50:03.533Z,9.02
2023-05-19T10:51:12.128Z,8.27
2023-05-19T10:52:27.386Z,9.38
2023-05-19T10:53:34.899Z,9.55
2023-05-19T10:54:43.369Z,8.98
2023-05-19T10:55:48.266Z,8.55
2023-05-19T10:56:56.816Z,8.98
2023-05-19T10:58:02.611Z,8.80
2023-05-19T10:59:05.962Z,8.30
2023-05-19T11:00:28.462Z,9.25
2023-05-19T11:01:33.313Z,8.13
2023-05-19T11:02:41.387Z,8.57
2023-05-19T11:03:52.650Z,7.88
2023-05-19T11:05:10.125Z,7.95
2023-05-19T11:06:38.181Z,8.75
2023-05-19T11:07:44.734Z,8.00
2023-05-19T11:08:52.144Z,7.45
2023-05-19T11:09:54.745Z,7.97
2023-05-19T11:10:57.553Z,8.88
2023-05-19T11:12:03.781Z,8.45
2023-05-19T11:13:06.766Z,8.88
2023-05-19T11:14:12.930Z,8.07
2023-05-19T11:15:16.678Z,7.88
2023-05-19T11:16:26.655Z,7.68
2023-05-19T11:17:29.528Z,7.65
2023-05-19T11:18:32.172Z,8.23
2023-05-19T11:19:36.111Z,8.77
2023-05-19T11:20:39.631Z,7.22
2023-05-19T11:21:55.094Z,7.75
2023-05-19T11:23:14.661Z,7.10
2023-05-19T11:24:40.094Z,7.10
2023-05-19T11:25:54.332Z,7.22
2023-05-19T11:26:57.473Z,7.03
2023-05-19T11:28:00.680Z,8.02
2023-05-19T11:29:04.042Z,6.22
2023-05-19T11:30:07.566Z,7.43
2023-05-19T11:31:11.406Z,7.15
2023-05-19T11:32:16.549Z,7.05
2023-05-19T11:33:23.279Z,6.97
2023-05-19T11:34:25.933Z,6.18
2023-05-19T11:35:30.209Z,7.88
2023-05-19T11:36:39.908Z,7.60
2023-05-19T11:37:42.983Z,7.57
2023-05-19T11:38:46.902Z,6.47
2023-05-19T11:39:50.431Z,6.13
2023-05-19T11:40:54.146Z,7.28
2023-05-19T11:41:56.683Z,6.72
2023-05-19T11:43:01.704Z,6.72
2023-05-19T11:44:04.140Z,6.30
2023-05-19T11:45:07.386Z,6.53
2023-05-19T11:46:10.225Z,6.93
2023-05-19T11:47:14.156Z,6.47
2023-05-19T11:48:17.537Z,7.53
2023-05-19T11:49:20.813Z,6.60
2023-05-19T11:50:24.279Z,6.60
2023-05-19T11:51:26.790Z,6.70
2023-05-19T11:52:29.254Z,6.97
2023-05-19T11:53:33.260Z,7.95
2023-05-19T11:54:37.389Z,8.35
2023-05-19T11:55:47.689Z,8.10
2023-05-19T11:56:50.463Z,7.85
2023-05-19T11:58:03.838Z,7.82
2023-05-19T11:59:07.931Z,6.95
2023-05-19T12:00:12.582Z,8.43
2023-05-19T12:01:15.178Z,7.85
2023-05-19T12:02:22.570Z,9.18
2023-05-19T12:03:28.136Z,9.85
2023-05-19T12:04:31.861Z,9.25
2023-05-19T12:05:42.085Z,8.95
2023-05-19T12:06:49.315Z,10.10
2023-05-19T12:07:52.772Z,9.60
2023-05-19T12:08:59.216Z,10.40
2023-05-19T12:10:01.867Z,11.63
2023-05-19T12:11:06.468Z,10.40
2023-05-19T12:12:09.793Z,10.00
2023-05-19T12:13:12.698Z,10.20
2023-05-19T12:14:15.144Z,10.35
2023-05-19T12:15:22.077Z,10.77
2023-05-19T12:16:34.461Z,10.15
2023-05-19T12:17:37.081Z,10.68
2023-05-19T12:18:42.827Z,11.23
2023-05-19T12:19:47.053Z,10.77
2023-05-19T12:20:49.916Z,11.43
2023-05-19T12:21:53.644Z,11.75
2023-05-19T12:22:56.423Z,10.27
2023-05-19T12:23:59.802Z,10.55
2023-05-19T12:25:04.895Z,11.88
2023-05-19T12:26:10.795Z,12.70
2023-05-19T12:27:23.548Z,11.52
2023-05-19T12:28:25.965Z,10.18
2023-05-19T12:29:29.201Z,8.80
2023-05-19T12:30:35.658Z,7.43
2023-05-19T12:31:38.668Z,7.10
2023-05-19T12:32:41.438Z,7.07
2023-05-19T12:33:43.965Z,6.63
2023-05-19T12:34:47.391Z,5.90
2023-05-19T12:35:51.371Z,6.13
2023-05-19T12:36:53.927Z,6.03
2023-05-19T12:37:56.430Z,5.25
2023-05-19T12:38:59.375Z,5.53
2023-05-19T12:40:03.890Z,7.57
2023-05-19T12:41:07.072Z,7.43
2023-05-19T12:42:11.374Z,6.90
2023-05-19T12:43:22.705Z,7.55
2023-05-19T12:44:28.447Z,6.90
2023-05-19T12:45:38.545Z,5.15
2023-05-19T12:46:41.490Z,4.55
2023-05-19T12:47:48.391Z,4.47
2023-05-19T12:48:51.745Z,4.22
2023-05-19T12:50:04.794Z,4.60
2023-05-19T12:51:07.785Z,5.35
2023-05-19T12:52:13.553Z,4.65
2023-05-19T12:53:16.171Z,5.97
2023-05-19T12:54:22.198Z,6.40
2023-05-19T12:55:25.106Z,5.82
2023-05-19T12:56:27.696Z,6.13
2023-05-19T12:57:33.137Z,7.63
2023-05-19T12:58:37.479Z,6.90
2023-05-19T12:59:43.380Z,6.25
2023-05-19T13:00:50.365Z,7.72
2023-05-19T13:01:59.928Z,7.70
2023-05-19T13:03:08.796Z,6.93
2023-05-19T13:04:12.183Z,7.13
2023-05-19T13:05:15.611Z,7.47
2023-05-19T13:06:18.089Z,7.00
2023-05-19T13:07:20.912Z,7.03
2023-05-19T13:08:24.702Z,7.05
2023-05-19T13:09:27.899Z,6.00
2023-05-19T13:10:32.538Z,5.90
2023-05-19T13:11:36.472Z,5.68
2023-05-19T13:12:38.973Z,6.43
2023-05-19T13:13:41.710Z,6.28
2023-05-19T13:14:44.742Z,5.25
2023-05-19T13:15:50.820Z,6.32
2023-05-19T13:16:53.577Z,7.85
2023-05-19T13:17:56.747Z,7.05
2023-05-19T13:18:59.496Z,6.35
2023-05-19T13:20:02.362Z,6.35
2023-05-19T13:21:05.708Z,6.60
2023-05-19T13:22:08.314Z,6.57
2023-05-19T13:23:12.023Z,6.75
2023-05-19T13:24:14.580Z,7.45
2023-05-19T13:25:17.310Z,6.88
2023-05-19T13:26:20.004Z,6.80
2023-05-19T13:27:26.547Z,7.82
2023-05-19T13:28:30.179Z,7.03
2023-05-19T13:29:32.705Z,6.03
2023-05-19T13:30:39.795Z,5.63
2023-05-19T13:31:42.620Z,5.63
2023-05-19T13:32:45.994Z,6.22
2023-05-19T13:33:48.589Z,6.43
2023-05-19T13:34:51.149Z,6.25
2023-05-19T13:35:54.055Z,5.15
2023-05-19T13:36:56.800Z,6.25
2023-05-19T13:37:59.507Z,5.35
2023-05-19T13:39:02.592Z,6.00
2023-05-19T13:40:06.177Z,5.63
2023-05-19T13:41:10.804Z,5.65
2023-05-19T13:42:14.156Z,5.40
2023-05-19T13:43:16.794Z,6.20
2023-05-19T13:44:19.428Z,5.47
2023-05-19T13:45:22.274Z,5.97
2023-05-19T13:46:36.656Z,5.20
2023-05-19T13:47:47.370Z,4.95
2023-05-19T13:48:53.452Z,5.25
2023-05-19T13:49:59.322Z,5.00
2023-05-19T13:51:04.626Z,5.10
2023-05-19T13:52:07.896Z,4.80
2023-05-19T13:53:11.626Z,5.00
2023-05-19T13:54:15.257Z,4.95
2023-05-19T13:55:17.943Z,4.60
2023-05-19T13:56:20.509Z,4.70
2023-05-19T13:57:26.464Z,5.68
2023-05-19T13:58:29.657Z,6.68
2023-05-19T13:59:37.280Z,4.47
2023-05-19T14:00:49.699Z,4.28
2023-05-19T14:01:57.073Z,3.97
2023-05-19T14:03:05.467Z,4.72
2023-05-19T14:04:08.732Z,4.38
2023-05-19T14:05:11.969Z,4.20
2023-05-19T14:06:14.730Z,4.95
2023-05-19T14:07:17.735Z,4.47
2023-05-19T14:08:21.046Z,4.20
2023-05-19T14:09:27.944Z,4.47
2023-05-19T14:10:31.007Z,4.40
2023-05-19T14:11:34.548Z,4.72
2023-05-19T14:12:47.843Z,5.20
2023-05-19T14:14:03.388Z,4.75
2023-05-19T14:15:06.874Z,4.93
2023-05-19T14:16:10.271Z,4.25
2023-05-19T14:17:13.033Z,4.32
2023-05-19T14:18:17.947Z,4.80
2023-05-19T14:19:20.773Z,4.40
2023-05-19T14:20:23.357Z,4.63
2023-05-19T14:21:26.812Z,4.05
2023-05-19T14:22:29.492Z,4.75
2023-05-19T14:23:32.489Z,4.68
2023-05-19T14:24:35.196Z,3.97
2023-05-19T14:25:40.046Z,4.70
2023-05-19T14:26:43.222Z,4.15